Time;durP1;ratioP1;P1;durP2;ratioP2;P2;SDS_P1;SDS_P2;PMS_P1;PMS_P2;Temp;Humidity;BMP_temperature;BMP_pressure;BME280_temperature;BME280_humidity;BME280_pressure;Samples;Min_cycle;Max_cycle;Signal;HPM_P1;HPM_P2
2022/03/03 00:00:44;;;;;;;28.70;13.40;;;;;;;1.42;64.11;101845.00;5044682;28;20495;-72
2022/03/03 00:03:09;;;;;;;27.33;13.48;;;;;;;1.43;63.06;101850.25;5042130;28;20100;-71
2022/03/03 00:05:34;;;;;;;25.15;11.77;;;;;;;1.42;63.49;101850.28;5056973;22;20516;-78
2022/03/03 00:08:00;;;;;;;25.95;14.10;;;;;;;1.35;64.65;101842.47;5037198;28;20025;-78
2022/03/03 00:10:25;;;;;;;26.90;12.75;;;;;;;1.31;64.71;101840.78;5048833;28;20278;-78
2022/03/03 00:12:50;;;;;;;26.27;13.82;;;;;;;1.28;65.67;101840.84;5040219;28;20024;-78
2022/03/03 00:15:15;;;;;;;25.83;13.13;;;;;;;1.21;65.29;101840.06;5035908;28;20021;-78
2022/03/03 00:17:41;;;;;;;28.23;14.20;;;;;;;1.18;64.67;101828.66;5021540;28;20493;-78
2022/03/03 00:20:06;;;;;;;26.92;13.55;;;;;;;1.15;65.07;101834.88;5034323;28;20045;-78
2022/03/03 00:22:32;;;;;;;28.02;13.43;;;;;;;1.14;65.56;101834.91;5038013;28;20082;-79
2022/03/03 00:24:57;;;;;;;27.50;13.55;;;;;;;1.10;65.32;101830.56;5038217;28;20036;-78
2022/03/03 00:27:22;;;;;;;26.95;13.15;;;;;;;1.06;66.17;101831.56;5047403;28;20113;-78
2022/03/03 00:29:47;;;;;;;28.67;13.27;;;;;;;1.01;66.35;101831.59;5022215;28;20032;-78
2022/03/03 00:32:13;;;;;;;30.58;12.32;;;;;;;1.00;65.72;101830.75;5037860;28;20025;-78
2022/03/03 00:34:38;;;;;;;26.40;13.38;;;;;;;0.96;65.81;101833.47;5031345;28;20043;-78
2022/03/03 00:37:04;;;;;;;28.10;13.68;;;;;;;0.94;66.23;101836.16;5032785;28;20392;-78
2022/03/03 00:39:29;;;;;;;25.67;12.32;;;;;;;0.93;66.32;101834.41;5045777;28;20060;-78
2022/03/03 00:41:54;;;;;;;26.00;12.73;;;;;;;0.92;65.71;101832.63;5024335;28;20410;-78
2022/03/03 00:44:19;;;;;;;27.15;13.18;;;;;;;0.87;65.84;101829.22;5017107;28;20040;-78
2022/03/03 00:46:44;;;;;;;26.63;13.65;;;;;;;0.87;65.34;101831.84;5039684;28;20040;-78
2022/03/03 00:49:10;;;;;;;28.05;15.25;;;;;;;0.83;66.09;101833.66;5027188;28;20028;-78
2022/03/03 00:51:35;;;;;;;25.23;12.95;;;;;;;0.81;66.17;101838.13;5048134;28;20047;-78
2022/03/03 00:54:01;;;;;;;27.23;14.50;;;;;;;0.80;66.61;101831.06;5049454;28;20052;-78
2022/03/03 00:56:26;;;;;;;27.40;12.88;;;;;;;0.76;67.58;101820.56;5046215;28;20463;-78
2022/03/03 00:58:51;;;;;;;25.60;13.48;;;;;;;0.74;66.94;101822.38;5047174;28;20170;-78
2022/03/03 01:01:17;;;;;;;28.30;14.13;;;;;;;0.68;67.46;101826.88;5043441;28;20033;-78
2022/03/03 01:03:42;;;;;;;29.05;15.00;;;;;;;0.69;66.17;101822.47;5042396;28;20029;-78
2022/03/03 01:06:09;;;;;;;29.75;15.02;;;;;;;0.62;67.54;101818.16;5047299;28;20048;-78
2022/03/03 01:08:34;;;;;;;25.23;13.38;;;;;;;0.60;67.46;101818.19;5050463;28;20131;-78
2022/03/03 01:10:59;;;;;;;27.95;15.02;;;;;;;0.53;67.79;101816.53;5028105;28;20188;-78
2022/03/03 01:13:25;;;;;;;29.60;15.25;;;;;;;0.54;67.47;101826.22;5035948;28;20021;-78
2022/03/03 01:15:50;;;;;;;29.88;16.23;;;;;;;0.54;66.52;101826.22;5063724;28;20510;-78
2022/03/03 01:18:17;;;;;;;27.98;15.18;;;;;;;0.57;66.23;101822.66;5023448;28;20446;-78
2022/03/03 01:20:42;;;;;;;32.55;15.20;;;;;;;0.55;67.19;101825.31;5030354;28;20039;-78
2022/03/03 01:23:08;;;;;;;28.77;15.15;;;;;;;0.51;67.62;101818.31;5043007;28;20466;-78
2022/03/03 01:25:33;;;;;;;28.63;14.10;;;;;;;0.48;66.67;101813.97;5045522;28;20369;-78
2022/03/03 01:27:59;;;;;;;28.77;13.98;;;;;;;0.45;67.48;101816.66;5036063;28;20067;-78
2022/03/03 01:30:24;;;;;;;28.25;13.95;;;;;;;0.43;67.01;101812.31;5024325;28;20033;-78
2022/03/03 01:32:49;;;;;;;28.42;14.20;;;;;;;0.39;68.16;101813.25;5030208;28;20025;-78
2022/03/03 01:35:14;;;;;;;27.13;12.13;;;;;;;0.34;68.68;101813.31;5058994;28;20399;-78
2022/03/03 01:37:40;;;;;;;25.25;13.40;;;;;;;0.30;68.42;101809.81;5041142;28;20021;-78
2022/03/03 01:40:06;;;;;;;28.20;14.50;;;;;;;0.28;67.87;101805.44;5048267;28;20043;-78
2022/03/03 01:42:31;;;;;;;28.42;14.23;;;;;;;0.28;68.19;101795.78;5036196;28;20116;-78
2022/03/03 01:44:57;;;;;;;25.85;13.70;;;;;;;0.25;68.44;101798.47;5039333;28;20532;-78
2022/03/03 01:47:24;;;;;;;30.05;13.80;;;;;;;0.20;68.41;101797.63;5049070;28;20103;-78
2022/03/03 01:49:51;;;;;;;29.70;13.98;;;;;;;0.14;68.99;101790.66;5044934;28;20037;-78
2022/03/03 01:52:18;;;;;;;30.25;15.55;;;;;;;0.12;68.91;101781.03;5015250;28;20568;-78
2022/03/03 01:54:43;;;;;;;27.40;14.50;;;;;;;0.10;69.05;101782.81;5030671;28;20380;-78
2022/03/03 01:57:08;;;;;;;26.90;13.93;;;;;;;0.13;69.63;101781.03;5028436;28;20024;-78
2022/03/03 01:59:35;;;;;;;27.67;14.68;;;;;;;0.14;69.75;101779.22;5046302;28;20116;-78
2022/03/03 02:02:01;;;;;;;27.75;14.35;;;;;;;0.13;69.38;101783.66;5047680;28;20098;-77
2022/03/03 02:04:26;;;;;;;29.85;14.52;;;;;;;0.13;69.41;101780.13;5048317;28;20069;-78
2022/03/03 02:06:52;;;;;;;28.17;14.93;;;;;;;0.11;69.00;101776.63;5024046;28;20597;-78
2022/03/03 02:09:17;;;;;;;29.98;14.88;;;;;;;0.13;68.16;101767.81;5020716;28;20072;-78
2022/03/03 02:11:45;;;;;;;27.80;12.98;;;;;;;0.10;69.39;101764.31;5039945;28;20570;-77
2022/03/03 02:14:10;;;;;;;27.80;13.77;;;;;;;0.13;69.00;101761.63;5045581;28;20043;-77
2022/03/03 02:16:35;;;;;;;30.50;15.55;;;;;;;0.11;69.51;101763.44;5037135;28;20100;-77
2022/03/03 02:19:01;;;;;;;28.92;14.25;;;;;;;0.10;69.13;101772.25;5030325;28;20067;-77
2022/03/03 02:21:26;;;;;;;28.98;15.02;;;;;;;0.09;69.21;101760.81;5025517;28;20027;-77
2022/03/03 02:23:51;;;;;;;30.10;16.00;;;;;;;0.05;69.24;101752.94;5031699;28;20076;-77
2022/03/03 02:26:22;;;;;;;29.58;13.70;;;;;;;0.01;69.87;101749.47;5029089;28;20128;-77
2022/03/03 02:28:51;;;;;;;27.85;14.90;;;;;;;-0.03;69.04;101743.38;5026084;28;20075;-77
2022/03/03 02:31:17;;;;;;;31.83;15.88;;;;;;;-0.02;69.62;101742.44;5021413;28;20055;-77
2022/03/03 02:33:43;;;;;;;28.80;14.50;;;;;;;-0.04;70.05;101752.19;5042138;28;20033;-77
2022/03/03 02:36:17;;;;;;;28.50;14.57;;;;;;;-0.04;70.35;101754.81;5021252;28;20025;-77
2022/03/03 02:38:42;;;;;;;25.48;13.35;;;;;;;-0.08;69.21;101742.53;5019075;28;20031;-77
2022/03/03 02:41:07;;;;;;;27.30;13.82;;;;;;;-0.07;69.37;101748.72;5024172;28;20116;-77
2022/03/03 02:43:33;;;;;;;29.20;14.48;;;;;;;-0.07;68.49;101749.59;5044033;28;20387;-77
2022/03/03 02:45:58;;;;;;;27.92;14.48;;;;;;;-0.08;68.91;101753.13;5054224;28;20025;-77
2022/03/03 02:48:23;;;;;;;28.63;13.95;;;;;;;-0.06;68.85;101753.97;5029771;28;20024;-77
2022/03/03 02:50:48;;;;;;;28.42;14.50;;;;;;;-0.03;68.73;101753.03;5047349;28;20459;-77
2022/03/03 02:53:14;;;;;;;28.73;13.57;;;;;;;-0.07;70.45;101748.72;5047242;28;20040;-77
2022/03/03 02:55:39;;;;;;;29.90;14.70;;;;;;;-0.11;69.98;101742.59;5028123;28;20021;-77
2022/03/03 02:58:05;;;;;;;28.58;15.10;;;;;;;-0.14;69.30;101747.91;5051328;28;20021;-77
2022/03/03 03:00:39;;;;;;;29.20;14.88;;;;;;;-0.18;70.68;101738.28;5038972;28;20103;-77
2022/03/03 03:03:04;;;;;;;36.40;14.60;;;;;;;-0.20;69.46;101748.88;5048601;28;20048;-77
2022/03/03 03:05:30;;;;;;;28.27;14.73;;;;;;;-0.19;69.78;101744.47;5011537;28;20096;-78
2022/03/03 03:07:55;;;;;;;28.77;14.85;;;;;;;-0.21;70.53;101741.84;5033167;28;20063;-77
2022/03/03 03:10:20;;;;;;;27.65;15.18;;;;;;;-0.29;71.66;101745.47;5046815;28;20084;-78
2022/03/03 03:12:46;;;;;;;26.50;12.82;;;;;;;-0.39;72.08;101740.34;5039018;28;20040;-78
2022/03/03 03:15:11;;;;;;;29.90;13.68;;;;;;;-0.43;71.19;101746.53;5022238;28;20454;-78
2022/03/03 03:17:37;;;;;;;28.38;14.23;;;;;;;-0.47;71.86;101744.88;5027518;28;20115;-78
2022/03/03 03:20:06;;;;;;;32.28;15.65;;;;;;;-0.45;70.86;101739.56;5044688;28;20052;-78
2022/03/03 03:22:32;;;;;;;29.33;14.57;;;;;;;-0.47;70.21;101736.03;5043874;28;20060;-78
2022/03/03 03:24:57;;;;;;;27.13;14.02;;;;;;;-0.48;72.29;101736.94;5034614;28;20442;-77
2022/03/03 03:27:22;;;;;;;27.52;13.18;;;;;;;-0.53;71.85;101734.34;5024899;28;20381;-77
2022/03/03 03:29:47;;;;;;;28.33;14.38;;;;;;;-0.52;71.33;101727.34;5018671;28;20101;-77
2022/03/03 03:32:13;;;;;;;29.00;12.93;;;;;;;-0.55;72.03;101725.59;5020768;28;20028;-77
2022/03/03 03:34:38;;;;;;;28.95;14.27;;;;;;;-0.54;71.53;101727.34;5033368;28;20476;-77
2022/03/03 03:37:04;;;;;;;28.20;13.45;;;;;;;-0.57;72.37;101722.97;5029999;28;20068;-77
2022/03/03 03:39:29;;;;;;;26.75;14.68;;;;;;;-0.54;72.40;101728.22;5051402;28;20043;-77
2022/03/03 03:41:55;;;;;;;28.40;14.05;;;;;;;-0.50;71.82;101723.75;5045953;28;20032;-77
2022/03/03 03:44:20;;;;;;;30.27;14.80;;;;;;;-0.45;71.43;101723.72;5015484;28;20480;-78
2022/03/03 03:46:46;;;;;;;27.48;14.25;;;;;;;-0.42;71.79;101715.75;5022967;28;20020;-78
2022/03/03 03:49:11;;;;;;;30.08;15.15;;;;;;;-0.40;71.33;101713.94;5029425;28;20022;-77
2022/03/03 03:51:36;;;;;;;31.60;15.52;;;;;;;-0.42;71.96;101710.47;5019667;28;20569;-77
2022/03/03 03:54:01;;;;;;;28.13;15.40;;;;;;;-0.40;71.79;101706.03;5049704;28;20021;-77
2022/03/03 03:56:27;;;;;;;31.42;14.98;;;;;;;-0.39;71.69;101710.41;5032615;28;20017;-78
2022/03/03 03:58:52;;;;;;;29.40;14.88;;;;;;;-0.35;71.11;101706.84;5051010;28;20048;-78
2022/03/03 04:01:17;;;;;;;29.88;13.68;;;;;;;-0.32;71.37;101700.63;5040790;28;20040;-78
2022/03/03 04:03:42;;;;;;;27.65;13.65;;;;;;;-0.33;70.73;101710.31;5057886;28;20025;-79
2022/03/03 04:06:08;;;;;;;32.33;14.98;;;;;;;-0.33;71.44;101699.75;5039266;28;20045;-78
2022/03/03 04:08:34;;;;;;;27.10;13.35;;;;;;;-0.37;71.32;101705.97;5032277;28;20368;-78
2022/03/03 04:10:59;;;;;;;28.38;13.55;;;;;;;-0.38;70.63;101707.75;5051503;28;20039;-78
2022/03/03 04:13:24;;;;;;;31.15;16.13;;;;;;;-0.38;70.44;101712.16;5048097;28;20491;-78
2022/03/03 04:15:49;;;;;;;27.98;13.48;;;;;;;-0.40;71.32;101713.94;5044727;28;20029;-78
2022/03/03 04:18:15;;;;;;;29.70;15.02;;;;;;;-0.44;71.48;101713.13;5042878;28;20530;-78
2022/03/03 04:20:40;;;;;;;29.38;13.98;;;;;;;-0.47;71.44;101702.63;5041865;28;20029;-78
2022/03/03 04:23:05;;;;;;;28.20;14.50;;;;;;;-0.47;71.79;101702.63;5014461;28;20033;-78
2022/03/03 04:25:31;;;;;;;29.45;14.30;;;;;;;-0.48;71.87;101694.69;5032488;28;20037;-78
2022/03/03 04:27:57;;;;;;;28.63;15.05;;;;;;;-0.46;71.70;101691.13;5049840;28;20021;-78
2022/03/03 04:30:22;;;;;;;31.25;14.32;;;;;;;-0.42;71.39;101684.06;5045202;28;20033;-78
2022/03/03 04:32:47;;;;;;;29.90;14.07;;;;;;;-0.36;71.37;101681.31;5045639;28;20087;-78
2022/03/03 04:35:12;;;;;;;30.48;14.77;;;;;;;-0.28;70.86;101686.47;5043757;28;20032;-78
2022/03/03 04:37:39;;;;;;;27.98;15.13;;;;;;;-0.29;71.16;101684.72;5033242;28;20365;-78
2022/03/03 04:40:05;;;;;;;27.65;13.68;;;;;;;-0.28;70.67;101686.47;5050772;28;20376;-78
2022/03/03 04:42:31;;;;;;;28.58;13.65;;;;;;;-0.29;71.10;101679.44;5045293;28;20040;-78
2022/03/03 04:44:56;;;;;;;25.08;13.38;;;;;;;-0.29;70.79;101682.97;5043103;28;20025;-78
2022/03/03 04:47:21;;;;;;;29.40;14.70;;;;;;;-0.26;70.95;101674.16;5021855;28;20025;-78
2022/03/03 04:49:47;;;;;;;32.28;13.57;;;;;;;-0.24;70.70;101672.34;5046030;28;20026;-78
2022/03/03 04:52:12;;;;;;;31.77;14.32;;;;;;;-0.24;70.12;101664.41;5040678;28;20082;-78
2022/03/03 04:54:37;;;;;;;29.23;14.10;;;;;;;-0.20;70.31;101660.84;5039979;28;20025;-78
2022/03/03 04:57:03;;;;;;;29.15;14.20;;;;;;;-0.19;69.98;101662.56;5024433;28;20112;-78
2022/03/03 04:59:28;;;;;;;29.95;15.00;;;;;;;-0.16;69.86;101666.94;5047156;28;20349;-78
2022/03/03 05:01:53;;;;;;;27.65;14.30;;;;;;;-0.16;69.88;101664.28;5023474;28;20030;-78
2022/03/03 05:04:19;;;;;;;28.90;15.48;;;;;;;-0.19;70.12;101665.19;5054845;28;20854;-78
2022/03/03 05:06:45;;;;;;;28.73;13.55;;;;;;;-0.23;69.92;101664.38;5049522;28;20107;-78
2022/03/03 05:09:11;;;;;;;28.25;12.77;;;;;;;-0.22;69.18;101675.81;5041425;28;20029;-78
2022/03/03 05:11:36;;;;;;;31.83;14.75;;;;;;;-0.23;70.14;101674.09;5054030;28;20032;-78
2022/03/03 05:14:01;;;;;;;28.80;13.15;;;;;;;-0.28;69.32;101682.09;5059764;28;20028;-77
2022/03/03 05:16:27;;;;;;;27.80;14.57;;;;;;;-0.31;69.18;101679.47;5031333;28;20046;-78
2022/03/03 05:18:52;;;;;;;28.98;14.55;;;;;;;-0.35;69.05;101685.72;5035002;28;20031;-78
2022/03/03 05:21:17;;;;;;;28.98;13.93;;;;;;;-0.43;70.16;101680.53;5048172;28;20472;-78
2022/03/03 05:23:42;;;;;;;30.02;14.48;;;;;;;-0.49;71.18;101680.63;5039437;28;20020;-78
2022/03/03 05:26:08;;;;;;;27.70;13.32;;;;;;;-0.57;70.78;101675.44;5032236;28;20033;-78
2022/03/03 05:28:33;;;;;;;27.98;13.95;;;;;;;-0.62;70.82;101679.03;5022878;28;20387;-78
2022/03/03 05:30:58;;;;;;;29.27;14.10;;;;;;;-0.68;71.15;101671.22;5018916;28;20029;-78
2022/03/03 05:33:24;;;;;;;28.77;13.20;;;;;;;-0.76;70.83;101679.22;5036167;28;20078;-78
2022/03/03 05:35:57;;;;;;;30.42;14.35;;;;;;;-0.82;72.35;101680.19;5031563;28;20021;-78
2022/03/03 05:38:23;;;;;;;29.75;13.95;;;;;;;-0.89;71.40;101684.66;5042373;28;20052;-78
2022/03/03 05:40:48;;;;;;;26.95;13.65;;;;;;;-0.96;71.98;101682.13;5046314;28;20049;-78
2022/03/03 05:43:14;;;;;;;29.70;14.75;;;;;;;-0.97;71.85;101686.50;5035925;28;20021;-77
2022/03/03 05:45:39;;;;;;;30.42;13.52;;;;;;;-1.02;71.77;101688.34;5041803;28;20079;-78
2022/03/03 05:48:04;;;;;;;29.35;13.82;;;;;;;-1.02;72.64;101687.47;5038508;28;20900;-78
2022/03/03 05:50:30;;;;;;;28.10;15.10;;;;;;;-1.12;73.32;101687.56;5040138;28;20361;-78
2022/03/03 05:52:59;;;;;;;25.67;12.82;;;;;;;-1.15;73.56;101694.66;5051103;28;20029;-78
2022/03/03 05:55:25;;;;;;;29.40;13.77;;;;;;;-1.21;73.85;101692.94;5048923;28;20472;-78
2022/03/03 05:57:53;;;;;;;26.20;13.63;;;;;;;-1.24;74.14;101691.19;5038079;28;20079;-78
2022/03/03 06:00:19;;;;;;;29.10;15.43;;;;;;;-1.25;73.76;101691.22;5047936;28;20028;-78
2022/03/03 06:02:50;;;;;;;28.13;13.90;;;;;;;-1.23;74.21;101686.78;5025460;28;20026;-78
2022/03/03 06:05:18;;;;;;;33.60;15.13;;;;;;;-1.26;73.56;101689.47;5049246;28;20523;-78
2022/03/03 06:07:49;;;;;;;32.50;14.50;;;;;;;-1.27;74.26;101687.75;5030680;28;20385;-78
2022/03/03 06:10:20;;;;;;;28.90;14.73;;;;;;;-1.24;73.74;101683.28;5042204;28;20460;-78
2022/03/03 06:12:47;;;;;;;30.00;13.75;;;;;;;-1.25;73.78;101672.75;5049055;28;20059;-78
2022/03/03 06:15:13;;;;;;;32.70;15.48;;;;;;;-1.24;74.14;101677.16;5030157;28;20052;-78
2022/03/03 06:17:42;;;;;;;26.48;12.52;;;;;;;-1.24;74.22;101678.00;5048168;28;20506;-78
2022/03/03 06:20:08;;;;;;;29.88;14.75;;;;;;;-1.20;73.89;101673.59;5042552;28;20029;-78
2022/03/03 06:22:34;;;;;;;32.05;16.48;;;;;;;-1.19;73.87;101675.31;5036330;28;20120;-78
2022/03/03 06:24:59;;;;;;;28.52;13.57;;;;;;;-1.18;73.82;101673.59;5026026;28;20111;-77
2022/03/03 06:27:26;;;;;;;27.52;13.38;;;;;;;-1.15;73.60;101669.13;5043507;28;20088;-78
2022/03/03 06:29:52;;;;;;;29.60;14.65;;;;;;;-1.14;73.73;101676.16;5025770;28;20048;-78
2022/03/03 06:32:17;;;;;;;33.08;14.35;;;;;;;-1.13;73.57;101680.56;5031556;28;20056;-78
2022/03/03 06:34:42;;;;;;;28.65;13.45;;;;;;;-1.11;73.59;101678.75;5050130;28;20032;-78
2022/03/03 06:37:07;;;;;;;28.33;13.65;;;;;;;-1.08;73.28;101688.41;5028166;28;20100;-78
2022/03/03 06:39:33;;;;;;;29.05;15.23;;;;;;;-1.07;73.43;101682.22;5019993;28;20388;-78
2022/03/03 06:41:58;;;;;;;29.70;14.40;;;;;;;-1.09;72.85;101682.25;5042477;28;20108;-78
2022/03/03 06:44:24;;;;;;;26.20;11.80;;;;;;;-1.06;73.01;101676.94;5046773;28;20028;-78
2022/03/03 06:46:49;;;;;;;28.88;13.23;;;;;;;-1.02;73.04;101674.28;5021106;28;20080;-78
2022/03/03 06:49:15;;;;;;;28.88;13.60;;;;;;;-1.01;73.11;101692.72;5026740;28;20024;-78
2022/03/03 06:51:43;;;;;;;31.50;15.88;;;;;;;-0.96;73.36;101695.31;5055764;28;20115;-78
2022/03/03 06:54:13;;;;;;;31.30;14.00;;;;;;;-0.92;72.96;101691.75;5048977;28;20028;-78
2022/03/03 06:56:46;;;;;;;26.35;12.95;;;;;;;-0.90;71.74;101692.59;5040404;28;20021;-78
2022/03/03 06:59:14;;;;;;;28.60;13.20;;;;;;;-0.86;71.89;101701.31;5038605;28;20111;-78
2022/03/03 07:01:40;;;;;;;25.42;12.95;;;;;;;-0.84;72.49;101702.19;5018433;28;20017;-78
2022/03/03 07:04:08;;;;;;;28.67;14.23;;;;;;;-0.79;72.06;101701.25;5048357;28;20018;-78
2022/03/03 07:06:33;;;;;;;28.50;14.05;;;;;;;-0.75;71.31;101702.97;5042843;28;20040;-78
2022/03/03 07:08:59;;;;;;;28.27;14.82;;;;;;;-0.72;71.37;101702.94;5041074;28;20025;-78
2022/03/03 07:11:25;;;;;;;27.92;13.52;;;;;;;-0.67;70.88;101704.63;5042696;28;20032;-78
2022/03/03 07:13:51;;;;;;;29.75;13.88;;;;;;;-0.60;70.40;101707.19;5021848;28;20091;-78
2022/03/03 07:16:23;;;;;;;26.95;13.10;;;;;;;-0.52;70.09;101717.63;5043113;28;20578;-78
2022/03/03 07:18:52;;;;;;;28.23;14.15;;;;;;;-0.48;71.30;101711.41;5040903;28;20016;-78
2022/03/03 07:21:51;;;;;;;32.78;14.60;;;;;;;-0.40;70.50;101708.66;5028236;28;20090;-78
2022/03/03 07:24:28;;;;;;;26.90;13.02;;;;;;;-0.37;70.56;101706.88;5047755;28;20039;-78
2022/03/03 07:27:00;;;;;;;29.52;14.02;;;;;;;-0.27;70.11;101706.72;5033388;28;20107;-78
2022/03/03 07:29:29;;;;;;;30.08;14.98;;;;;;;-0.19;69.94;101712.75;5033142;28;20024;-78
2022/03/03 07:31:56;;;;;;;27.47;14.73;;;;;;;-0.07;69.51;101711.72;5051834;28;20403;-78
2022/03/03 07:34:33;;;;;;;31.67;13.57;;;;;;;0.08;69.27;101713.25;5028581;28;20036;-78
2022/03/03 07:37:04;;;;;;;30.77;14.57;;;;;;;0.17;68.74;101711.31;5029036;28;20108;-78
2022/03/03 07:39:39;;;;;;;33.45;15.02;;;;;;;0.26;68.57;101712.06;5028053;28;20029;-78
2022/03/03 07:42:08;;;;;;;30.67;13.82;;;;;;;0.34;68.42;101711.06;5039271;28;20025;-78
2022/03/03 07:44:34;;;;;;;30.23;15.30;;;;;;;0.46;67.92;101706.47;5049887;28;20499;-78
2022/03/03 07:47:01;;;;;;;31.23;15.00;;;;;;;0.56;66.85;101708.03;5044407;28;20037;-78
2022/03/03 07:49:27;;;;;;;27.40;13.30;;;;;;;0.69;66.54;101708.69;5034989;28;21923;-78
2022/03/03 07:51:52;;;;;;;30.50;14.77;;;;;;;0.81;66.24;101703.16;5050426;28;20031;-78
2022/03/03 07:54:17;;;;;;;28.60;13.13;;;;;;;0.92;65.24;101707.38;5033207;28;20032;-78
2022/03/03 07:56:48;;;;;;;27.95;13.38;;;;;;;1.04;64.60;101704.50;5030237;28;20427;-79
2022/03/03 07:59:18;;;;;;;28.05;14.93;;;;;;;1.13;64.99;101709.63;5010170;28;20036;-80
2022/03/03 08:01:45;;;;;;;27.90;14.15;;;;;;;1.24;64.61;101706.72;5049457;28;20421;-78
2022/03/03 08:04:14;;;;;;;26.70;13.52;;;;;;;1.31;63.80;101713.66;5053832;28;20385;-79
2022/03/03 08:06:40;;;;;;;30.30;14.45;;;;;;;1.40;63.74;101713.44;5038313;28;20481;-79
2022/03/03 08:09:06;;;;;;;29.05;14.32;;;;;;;1.51;63.08;101709.72;5050917;28;20047;-79
2022/03/03 08:11:35;;;;;;;29.17;13.60;;;;;;;1.61;62.80;101715.69;5061762;28;20056;-79
2022/03/03 08:14:01;;;;;;;26.58;13.55;;;;;;;1.71;62.15;101709.25;5022683;28;20056;-79
2022/03/03 08:16:27;;;;;;;29.55;14.75;;;;;;;1.79;61.29;101715.28;5030911;28;20525;-79
2022/03/03 08:18:55;;;;;;;27.67;12.80;;;;;;;1.87;61.20;101705.34;5027959;28;20112;-78
2022/03/03 08:21:20;;;;;;;27.17;14.68;;;;;;;1.96;61.39;101709.56;5037150;28;20035;-79
2022/03/03 08:23:47;;;;;;;30.52;14.45;;;;;;;2.03;61.21;101712.94;5066262;28;20020;-76
2022/03/03 08:26:13;;;;;;;28.33;14.07;;;;;;;2.12;60.56;101706.56;5042374;28;20025;-77
2022/03/03 08:28:40;;;;;;;28.92;15.30;;;;;;;2.19;59.78;101703.72;5044437;28;20071;-78
2022/03/03 08:31:08;;;;;;;29.77;14.38;;;;;;;2.26;59.32;101699.13;5050099;28;20028;-79
2022/03/03 08:33:59;;;;;;;28.02;12.95;;;;;;;2.35;60.48;101713.94;5052985;28;20033;-78
2022/03/03 08:36:34;;;;;;;26.60;13.30;;;;;;;2.42;59.34;101705.78;5024508;28;20021;-79
2022/03/03 08:39:05;;;;;;;26.73;14.02;;;;;;;2.49;59.28;101709.19;5051581;28;20040;-77
2022/03/03 08:41:35;;;;;;;27.13;13.75;;;;;;;2.56;59.54;101705.47;5050039;28;20033;-78
2022/03/03 08:44:02;;;;;;;27.55;12.77;;;;;;;2.62;59.10;101710.59;5049586;28;20048;-78
2022/03/03 08:46:32;;;;;;;27.05;13.65;;;;;;;2.70;58.36;101715.69;5031311;28;20078;-78
2022/03/03 08:49:00;;;;;;;27.63;12.70;;;;;;;2.76;58.06;101715.53;5024734;28;20041;-79
2022/03/03 08:51:27;;;;;;;29.35;12.30;;;;;;;2.84;58.19;101719.75;5034644;28;20025;-79
2022/03/03 08:53:52;;;;;;;29.67;14.05;;;;;;;2.89;57.96;101721.38;5067427;28;20120;-78
2022/03/03 08:56:18;;;;;;;28.42;13.43;;;;;;;2.97;57.42;101711.44;5046390;28;20448;-79
2022/03/03 08:58:43;;;;;;;26.75;13.82;;;;;;;3.05;57.74;101707.69;5026470;28;20128;-79
2022/03/03 09:01:09;;;;;;;24.30;11.65;;;;;;;3.11;57.52;101712.81;5028560;28;20036;-79
2022/03/03 09:03:34;;;;;;;25.75;12.68;;;;;;;3.18;56.86;101706.44;5053961;28;20639;-79
2022/03/03 09:06:00;;;;;;;27.90;13.05;;;;;;;3.26;56.45;101709.72;5048601;28;20143;-79
2022/03/03 09:08:26;;;;;;;25.98;12.40;;;;;;;3.34;55.52;101717.47;5034616;28;20079;-79
2022/03/03 09:10:51;;;;;;;26.45;13.15;;;;;;;3.42;55.98;101711.94;5049227;28;20029;-79
2022/03/03 09:13:16;;;;;;;27.13;13.55;;;;;;;3.49;55.61;101717.00;5031548;28;20534;-79
2022/03/03 09:15:42;;;;;;;31.13;13.90;;;;;;;3.58;55.69;101707.91;5049528;28;20051;-79
2022/03/03 09:18:08;;;;;;;25.90;12.00;;;;;;;3.67;55.68;101706.75;5031432;28;20025;-78
2022/03/03 09:20:35;;;;;;;24.45;13.40;;;;;;;3.75;54.89;101710.06;5048312;28;20044;-80
2022/03/03 09:23:01;;;;;;;26.90;13.45;;;;;;;3.79;54.73;101706.38;5030190;28;20041;-79
2022/03/03 09:25:27;;;;;;;25.70;12.77;;;;;;;3.88;54.67;101704.34;5029797;28;20120;-80
2022/03/03 09:27:52;;;;;;;26.15;12.95;;;;;;;3.96;54.95;101705.84;5058552;28;20025;-79
2022/03/03 09:30:18;;;;;;;25.23;11.60;;;;;;;4.03;53.96;101698.53;5044613;28;20041;-79
2022/03/03 09:32:44;;;;;;;39.78;13.43;;;;;;;4.08;53.98;101688.59;5036073;28;20039;-80
2022/03/03 09:35:09;;;;;;;28.65;12.68;;;;;;;4.14;53.35;101693.75;5049160;28;20033;-79
2022/03/03 09:37:35;;;;;;;31.30;12.77;;;;;;;4.22;52.39;101689.94;5050716;28;20396;-79
2022/03/03 09:40:00;;;;;;;26.17;12.90;;;;;;;4.29;52.40;101697.69;5027949;28;20044;-79
2022/03/03 09:42:34;;;;;;;25.80;13.30;;;;;;;4.35;52.98;101694.81;5046915;28;20040;-79
2022/03/03 09:45:00;;;;;;;28.17;13.23;;;;;;;4.40;52.89;101688.47;5048142;28;20029;-79
2022/03/03 09:47:26;;;;;;;25.50;12.38;;;;;;;4.47;51.65;101693.53;5033955;28;20480;-79
2022/03/03 09:49:51;;;;;;;28.20;13.05;;;;;;;4.53;52.44;101693.31;5041145;28;20567;-80
2022/03/03 09:52:19;;;;;;;25.67;12.05;;;;;;;4.60;51.49;101687.75;5030993;28;20094;-79
2022/03/03 09:54:48;;;;;;;26.45;13.05;;;;;;;4.65;52.31;101688.50;5036310;28;20036;-80
2022/03/03 09:57:15;;;;;;;25.55;13.30;;;;;;;4.70;51.27;101684.75;5043388;28;20409;-79
2022/03/03 09:59:41;;;;;;;25.80;12.52;;;;;;;4.77;50.99;101700.50;5034699;28;20033;-79
2022/03/03 10:02:06;;;;;;;27.48;12.25;;;;;;;4.84;49.77;101689.56;5050594;28;20480;-79
2022/03/03 10:04:33;;;;;;;23.77;11.57;;;;;;;4.90;49.68;101689.38;5058488;28;20133;-80
2022/03/03 10:07:03;;;;;;;26.13;13.02;;;;;;;4.97;49.42;101684.66;5058375;28;20020;-80
2022/03/03 10:09:29;;;;;;;24.90;11.15;;;;;;;5.05;48.66;101689.72;5055877;28;20028;-80
2022/03/03 10:12:07;;;;;;;25.80;11.82;;;;;;;5.09;50.21;101688.69;5052510;28;20025;-80
2022/03/03 10:14:36;;;;;;;29.23;12.68;;;;;;;5.15;49.51;101683.13;5029075;28;20029;-78
2022/03/03 10:17:03;;;;;;;26.02;12.68;;;;;;;5.19;50.29;101681.22;5053911;28;20028;-78
2022/03/03 10:19:29;;;;;;;24.40;11.70;;;;;;;5.22;48.73;101675.78;5041863;28;20032;-79
2022/03/03 10:21:55;;;;;;;24.77;12.30;;;;;;;5.31;49.22;101682.56;5055284;28;20040;-79
2022/03/03 10:24:29;;;;;;;27.17;13.25;;;;;;;5.37;48.85;101687.66;5052141;28;20028;-79
2022/03/03 10:27:06;;;;;;;24.80;11.60;;;;;;;5.43;48.89;101671.41;5050657;28;20117;-79
2022/03/03 10:29:33;;;;;;;24.48;11.90;;;;;;;5.52;48.12;101680.84;5028418;28;20138;-79
2022/03/03 10:32:00;;;;;;;24.20;12.07;;;;;;;5.58;47.61;101676.16;5031996;28;20024;-80
2022/03/03 10:34:30;;;;;;;25.17;12.38;;;;;;;5.67;47.29;101674.06;5054690;28;20719;-79
2022/03/03 10:37:03;;;;;;;25.70;12.68;;;;;;;5.72;47.12;101670.25;5041668;28;20024;-79
2022/03/03 10:39:42;;;;;;;25.17;12.68;;;;;;;5.78;47.70;101667.38;5030307;28;20033;-79
2022/03/03 10:42:13;;;;;;;26.70;12.75;;;;;;;5.88;47.39;101662.50;5030083;28;20143;-79
2022/03/03 10:44:39;;;;;;;27.85;12.90;;;;;;;5.95;45.49;101674.69;5046320;28;20102;-79
2022/03/03 10:47:11;;;;;;;26.40;11.05;;;;;;;6.02;46.39;101662.00;5054915;28;20049;-79
2022/03/03 10:49:39;;;;;;;23.40;11.75;;;;;;;6.08;45.93;101663.56;5061058;28;20024;-80
2022/03/03 10:52:16;;;;;;;27.65;12.27;;;;;;;6.16;45.88;101663.22;5046600;28;20032;-79
2022/03/03 10:54:47;;;;;;;24.50;11.75;;;;;;;6.19;46.04;101665.75;5047624;28;20083;-80
2022/03/03 10:57:51;;;;;;;24.35;12.27;;;;;;;6.22;46.06;101658.50;5033681;28;20043;-80
2022/03/03 11:00:19;;;;;;;24.50;11.43;;;;;;;6.30;44.31;101664.38;5036849;28;20033;-79
2022/03/03 11:02:50;;;;;;;24.98;11.30;;;;;;;6.37;43.01;101661.44;5056980;28;20064;-79
2022/03/03 11:05:16;;;;;;;24.60;11.07;;;;;;;6.42;43.33;101662.13;5035628;28;20052;-79
2022/03/03 11:07:45;;;;;;;26.83;11.25;;;;;;;6.51;44.35;101667.06;5042491;28;20025;-79
2022/03/03 11:10:14;;;;;;;27.17;11.88;;;;;;;6.59;44.62;101662.25;5030733;28;20040;-80
2022/03/03 11:12:41;;;;;;;26.35;11.10;;;;;;;6.65;42.93;101653.97;5027824;28;20048;-79